ASG weather

Ashburton Aerodrome
Canterbury Region, New Zealand

Public forecast

Using degrees Celsius for public forecast. Weather courtesy of forecast.io.

METAR (pilot weather report)

Closest report is Christchurch International Airport, 40.4 nm (74.9 km) NE. Retrieved 2019/06/17 18:30 UTC (0 seconds ago):

NZCH 171830Z AUTO 23011KT 9999 NCD 05/02 Q1019 NOSIG

TAF (pilot weather forecast)

Closest forecast is Christchurch International Airport, 40.4 nm (74.9 km) NE. Retrieved 2019/06/17 18:09 UTC (6 minutes ago):

TAF NZCH 171705Z 1718/1818 24012KT 9999 FEW030 BKN050 FM180600 30005KT 9999 FEW020 PROB30 1810/1818 0500 FG